createdAt,value
2022-08-31T00:02:41.447Z,101471.61
2022-08-31T00:06:29.243Z,101471.07
2022-08-31T00:10:17.226Z,101471.34
2022-08-31T00:14:05.095Z,101471.15
2022-08-31T00:17:45.087Z,101470.71
2022-08-31T00:21:34.048Z,101468.87
2022-08-31T00:25:21.336Z,101470.55
2022-08-31T00:29:09.220Z,101470.63
2022-08-31T00:32:58.227Z,101471.75
2022-08-31T00:36:46.870Z,101469.19
2022-08-31T00:40:44.278Z,101476.45
2022-08-31T00:44:42.403Z,101470.75
2022-08-31T00:48:30.374Z,101471.27
2022-08-31T00:52:24.296Z,101473.09
2022-08-31T00:56:15.350Z,101473.94
2022-08-31T01:00:03.298Z,101477.85
2022-08-31T01:03:53.432Z,101474.22
2022-08-31T01:07:41.501Z,101475.60
2022-08-31T01:11:29.816Z,101472.80
2022-08-31T01:15:17.468Z,101477.23
2022-08-31T01:19:05.055Z,101476.13
2022-08-31T01:23:04.562Z,101472.80
2022-08-31T01:26:55.459Z,101474.73
2022-08-31T01:30:46.771Z,101475.01
2022-08-31T01:34:33.934Z,101477.95
2022-08-31T01:38:21.767Z,101480.05
2022-08-31T01:42:09.644Z,101480.55
2022-08-31T01:45:59.029Z,101479.73
2022-08-31T01:49:46.792Z,101482.41
2022-08-31T01:53:34.416Z,101488.11
2022-08-31T01:57:32.904Z,101487.46
2022-08-31T02:01:32.950Z,101491.89
2022-08-31T02:05:21.669Z,101489.62
2022-08-31T02:09:09.523Z,101486.20
2022-08-31T02:12:57.339Z,101483.34
2022-08-31T02:16:51.865Z,101481.10
2022-08-31T02:20:39.795Z,101480.64
2022-08-31T02:24:27.817Z,101486.54
2022-08-31T02:28:15.851Z,101477.70
2022-08-31T02:32:03.617Z,101484.01
2022-08-31T02:35:53.583Z,101481.23
2022-08-31T02:39:42.122Z,101476.66
2022-08-31T02:43:29.778Z,101478.10
2022-08-31T02:47:17.548Z,101481.60
2022-08-31T02:51:23.023Z,101483.37
2022-08-31T02:55:11.043Z,101480.19
2022-08-31T02:58:59.015Z,101476.52
2022-08-31T03:02:34.806Z,101484.86
2022-08-31T03:06:22.531Z,101483.15
2022-08-31T03:10:10.136Z,101482.73
2022-08-31T03:13:58.963Z,101484.03
2022-08-31T03:17:46.923Z,101485.63
2022-08-31T03:21:35.127Z,101485.64
2022-08-31T03:25:23.006Z,101487.60
2022-08-31T03:29:10.573Z,101487.67
2022-08-31T03:33:03.514Z,101487.19
2022-08-31T03:36:51.290Z,101490.59
2022-08-31T03:40:39.179Z,101488.84
2022-08-31T03:44:27.141Z,101485.75
2022-08-31T03:48:15.207Z,101489.82
2022-08-31T03:52:03.076Z,101495.68
2022-08-31T03:55:50.769Z,101497.89
2022-08-31T03:59:38.338Z,101497.25
2022-08-31T04:03:38.248Z,101491.89
2022-08-31T04:07:44.443Z,101493.33
2022-08-31T04:11:44.409Z,101498.32
2022-08-31T04:15:48.837Z,101494.52
2022-08-31T04:19:43.011Z,101497.26
2022-08-31T04:23:29.586Z,101492.95
2022-08-31T04:27:27.498Z,101497.95
2022-08-31T04:31:17.968Z,101502.11
2022-08-31T04:35:05.672Z,101503.72
2022-08-31T04:38:53.865Z,101504.90
2022-08-31T04:42:41.990Z,101505.95
2022-08-31T04:46:29.836Z,101506.05
2022-08-31T04:50:17.783Z,101508.50
2022-08-31T04:54:04.431Z,101510.19
2022-08-31T04:57:52.460Z,101507.42
2022-08-31T05:01:43.353Z,101504.31
2022-08-31T05:05:29.948Z,101503.88
2022-08-31T05:09:17.692Z,101502.09
2022-08-31T05:13:06.228Z,101503.02
2022-08-31T05:16:46.835Z,101500.19
2022-08-31T05:20:34.511Z,101511.31
2022-08-31T05:24:22.572Z,101514.96
2022-08-31T05:28:11.705Z,101516.75
2022-08-31T05:31:59.631Z,101517.33
2022-08-31T05:35:47.431Z,101515.83
2022-08-31T05:39:35.525Z,101518.75
2022-08-31T05:43:23.480Z,101525.68
2022-08-31T05:47:10.742Z,101531.02
2022-08-31T05:50:58.871Z,101536.23
2022-08-31T05:54:46.868Z,101545.21
2022-08-31T05:58:34.986Z,101548.43
2022-08-31T06:02:22.639Z,101552.39
2022-08-31T06:06:14.520Z,101548.54
2022-08-31T06:10:02.238Z,101552.45
2022-08-31T06:13:50.230Z,101557.05
2022-08-31T06:17:38.036Z,101567.56
2022-08-31T06:21:29.644Z,101565.21
2022-08-31T06:25:19.950Z,101563.97
2022-08-31T06:29:12.786Z,101568.45
2022-08-31T06:33:01.243Z,101570.45
2022-08-31T06:36:48.815Z,101569.30
2022-08-31T06:40:48.619Z,101567.09
2022-08-31T06:44:48.633Z,101567.87
2022-08-31T06:48:36.410Z,101572.86
2022-08-31T06:52:24.249Z,101574.15
2022-08-31T06:56:24.688Z,101576.40
2022-08-31T07:00:13.696Z,101580.30
2022-08-31T07:04:04.489Z,101578.31
2022-08-31T07:07:52.258Z,101582.03
2022-08-31T07:11:44.339Z,101579.53
2022-08-31T07:15:32.596Z,101581.77
2022-08-31T07:19:20.992Z,101584.59
2022-08-31T07:23:08.794Z,101584.73
2022-08-31T07:26:56.861Z,101583.17
2022-08-31T07:30:45.102Z,101582.61
2022-08-31T07:34:32.905Z,101585.92
2022-08-31T07:38:24.933Z,101580.47
2022-08-31T07:42:21.581Z,101585.95
2022-08-31T07:46:12.978Z,101583.86
2022-08-31T07:50:02.150Z,101587.56
2022-08-31T07:53:59.021Z,101589.27
2022-08-31T07:57:46.849Z,101599.41
2022-08-31T08:01:36.018Z,101604.88
2022-08-31T08:05:27.321Z,101601.30
2022-08-31T08:09:24.692Z,101595.34
2022-08-31T08:13:17.131Z,101597.06
2022-08-31T08:17:10.939Z,101597.52
2022-08-31T08:20:59.227Z,101592.80
2022-08-31T08:24:47.030Z,101589.84
2022-08-31T08:28:47.148Z,101589.52
2022-08-31T08:32:35.092Z,101596.55
2022-08-31T08:36:24.291Z,101585.44
2022-08-31T08:40:12.575Z,101588.66
2022-08-31T08:44:01.807Z,101592.33
2022-08-31T08:47:55.981Z,101593.86
2022-08-31T08:51:44.260Z,101590.77
2022-08-31T08:55:32.130Z,101590.63
2022-08-31T08:59:20.687Z,101584.38
2022-08-31T09:03:08.722Z,101599.30
2022-08-31T09:07:21.906Z,101594.77
2022-08-31T09:11:12.655Z,101595.14
2022-08-31T09:15:01.706Z,101599.89
2022-08-31T09:18:50.419Z,101596.02
2022-08-31T09:22:44.480Z,101584.55
2022-08-31T09:26:32.102Z,101584.45
2022-08-31T09:30:34.989Z,101579.52
2022-08-31T09:34:28.989Z,101583.04
2022-08-31T09:38:16.859Z,101582.26
2022-08-31T09:42:10.621Z,101584.42
2022-08-31T09:46:02.372Z,101583.48
2022-08-31T09:49:54.582Z,101583.33
2022-08-31T09:53:46.298Z,101583.77
2022-08-31T09:57:35.729Z,101579.70
2022-08-31T10:01:40.839Z,101592.19
2022-08-31T10:05:30.618Z,101586.63
2022-08-31T10:09:32.104Z,101588.94
2022-08-31T10:13:29.586Z,101575.48
2022-08-31T10:17:22.001Z,101572.02
2022-08-31T10:21:11.305Z,101567.52
2022-08-31T10:25:02.665Z,101567.94
2022-08-31T10:29:22.779Z,101562.77
2022-08-31T10:33:18.070Z,101554.81
2022-08-31T10:37:07.026Z,101553.74
2022-08-31T10:41:01.154Z,101547.73
2022-08-31T10:45:01.646Z,101549.44
2022-08-31T10:48:49.805Z,101540.15
2022-08-31T10:52:49.856Z,101536.26
2022-08-31T10:56:41.338Z,101532.81
2022-08-31T11:00:32.905Z,101530.41
2022-08-31T11:04:23.801Z,101533.02
2022-08-31T11:08:24.463Z,101525.17
2022-08-31T11:12:18.175Z,101527.08
2022-08-31T11:16:06.470Z,101521.84
2022-08-31T11:20:03.764Z,101519.37
2022-08-31T11:24:02.529Z,101512.82
2022-08-31T11:27:58.952Z,101508.86
2022-08-31T11:31:49.696Z,101502.71
2022-08-31T11:35:42.195Z,101500.23
2022-08-31T11:39:48.027Z,101506.42
2022-08-31T11:43:37.085Z,101505.73
2022-08-31T11:47:25.764Z,101503.15
2022-08-31T11:51:40.945Z,101492.33
2022-08-31T11:55:30.154Z,101498.92
2022-08-31T11:59:19.246Z,101497.86
2022-08-31T12:03:19.923Z,101498.51
2022-08-31T12:07:09.183Z,101492.27
2022-08-31T12:11:15.459Z,101493.04
2022-08-31T12:15:01.818Z,101496.79
2022-08-31T12:18:46.596Z,101496.14
2022-08-31T12:22:36.318Z,101486.67
2022-08-31T12:26:23.190Z,101484.48
2022-08-31T12:30:21.239Z,101488.44
2022-08-31T12:34:09.169Z,101482.48
2022-08-31T12:37:57.578Z,101484.23
2022-08-31T12:41:45.940Z,101484.97
2022-08-31T12:45:34.201Z,101479.17
2022-08-31T12:49:43.589Z,101484.65
2022-08-31T12:53:34.374Z,101489.55
2022-08-31T12:57:26.940Z,101483.98
2022-08-31T13:01:24.342Z,101482.19
2022-08-31T13:05:17.475Z,101476.60
2022-08-31T13:09:23.607Z,101475.81
2022-08-31T13:17:36.968Z,101466.48
2022-08-31T13:21:27.932Z,101461.49
2022-08-31T13:25:07.235Z,101465.16
2022-08-31T13:28:55.636Z,101467.59
2022-08-31T13:32:52.678Z,101470.98
2022-08-31T13:36:53.726Z,101468.06
2022-08-31T13:40:48.106Z,101466.06
2022-08-31T13:44:36.172Z,101465.27
2022-08-31T13:48:24.072Z,101463.47
2022-08-31T13:52:14.344Z,101464.33
2022-08-31T13:56:17.037Z,101458.69
2022-08-31T14:00:14.745Z,101462.53
2022-08-31T14:04:12.924Z,101451.84
2022-08-31T14:08:03.862Z,101459.56
2022-08-31T14:11:52.262Z,101458.88
2022-08-31T14:15:43.241Z,101464.37
2022-08-31T14:19:34.059Z,101465.90
2022-08-31T14:23:27.901Z,101462.95
2022-08-31T14:27:18.877Z,101464.70
2022-08-31T14:31:05.819Z,101460.92
2022-08-31T14:35:12.172Z,101458.80
2022-08-31T14:38:54.354Z,101463.55
2022-08-31T14:42:42.732Z,101460.88
2022-08-31T14:46:31.082Z,101463.80
2022-08-31T14:50:19.852Z,101458.94
2022-08-31T14:54:07.855Z,101463.42
2022-08-31T14:57:56.201Z,101451.33
2022-08-31T15:01:46.740Z,101450.54
2022-08-31T15:05:35.911Z,101453.02
2022-08-31T15:09:25.128Z,101452.04
2022-08-31T15:13:13.476Z,101450.95
2022-08-31T15:17:02.383Z,101455.36
2022-08-31T15:20:52.357Z,101451.08
2022-08-31T15:24:41.738Z,101448.30
2022-08-31T15:28:32.098Z,101447.18
2022-08-31T15:32:21.335Z,101444.77
2022-08-31T15:36:13.052Z,101443.20
2022-08-31T15:40:04.132Z,101443.41
2022-08-31T15:43:57.116Z,101446.45
2022-08-31T15:47:46.412Z,101438.93
2022-08-31T15:51:34.361Z,101432.30
2022-08-31T15:55:22.599Z,101429.46
2022-08-31T15:59:11.092Z,101433.31
2022-08-31T16:02:59.621Z,101430.50
2022-08-31T16:06:48.141Z,101425.77
2022-08-31T16:10:36.116Z,101422.13
2022-08-31T16:14:24.938Z,101416.42
2022-08-31T16:18:14.728Z,101414.70
2022-08-31T16:22:06.645Z,101416.39
2022-08-31T16:25:55.069Z,101412.62
2022-08-31T16:29:44.155Z,101413.75
2022-08-31T16:33:32.663Z,101412.53
2022-08-31T16:37:21.925Z,101410.46
2022-08-31T16:41:10.832Z,101405.35
2022-08-31T16:45:02.164Z,101399.02
2022-08-31T16:48:49.832Z,101399.45
2022-08-31T16:52:38.296Z,101394.19
2022-08-31T16:56:27.497Z,101390.77
2022-08-31T17:00:15.671Z,101402.05
2022-08-31T17:04:05.388Z,101407.45
2022-08-31T17:07:53.450Z,101406.91
2022-08-31T17:11:41.637Z,101405.92
2022-08-31T17:15:32.478Z,101409.42
2022-08-31T17:19:20.217Z,101413.30
2022-08-31T17:23:09.182Z,101414.02
2022-08-31T17:26:56.722Z,101415.57
2022-08-31T17:30:46.902Z,101418.48
2022-08-31T17:34:34.747Z,101414.69
2022-08-31T17:38:22.801Z,101416.70
2022-08-31T17:42:11.181Z,101417.92
2022-08-31T17:46:01.596Z,101421.69
2022-08-31T17:49:50.004Z,101427.98
2022-08-31T17:53:37.618Z,101430.60
2022-08-31T17:57:26.485Z,101442.73
2022-08-31T18:01:16.996Z,101446.95
2022-08-31T18:05:11.564Z,101456.06
2022-08-31T18:08:59.960Z,101455.06
2022-08-31T18:12:48.962Z,101455.20
2022-08-31T18:16:23.216Z,101463.05
2022-08-31T18:20:12.665Z,101464.81
2022-08-31T18:24:01.544Z,101465.08
2022-08-31T18:27:50.215Z,101467.40
2022-08-31T18:31:38.830Z,101472.82
2022-08-31T18:35:29.328Z,101473.69
2022-08-31T18:39:34.459Z,101473.92
2022-08-31T18:43:26.125Z,101472.95
2022-08-31T18:47:13.887Z,101477.45
2022-08-31T18:51:01.938Z,101477.48
2022-08-31T18:54:49.912Z,101477.27
2022-08-31T18:58:32.035Z,101472.97
2022-08-31T19:02:21.438Z,101478.52
2022-08-31T19:06:11.132Z,101483.33
2022-08-31T19:09:59.589Z,101484.15
2022-08-31T19:13:51.346Z,101484.02
2022-08-31T19:17:40.673Z,101486.39
2022-08-31T19:21:30.381Z,101489.48
2022-08-31T19:25:18.561Z,101490.33
2022-08-31T19:29:07.409Z,101489.06
2022-08-31T19:32:56.032Z,101489.67
2022-08-31T19:36:44.121Z,101490.64
2022-08-31T19:40:36.887Z,101488.00
2022-08-31T19:44:26.563Z,101490.20
2022-08-31T19:48:17.230Z,101489.73
2022-08-31T19:52:05.722Z,101493.24
2022-08-31T19:55:53.546Z,101489.86
2022-08-31T19:59:41.155Z,101492.53
2022-08-31T20:03:29.158Z,101486.01
2022-08-31T20:07:17.462Z,101489.22
2022-08-31T20:11:05.898Z,101500.77
2022-08-31T20:14:53.147Z,101493.70
2022-08-31T20:18:40.893Z,101502.75
2022-08-31T20:22:29.888Z,101502.59
2022-08-31T20:26:17.512Z,101506.45
2022-08-31T20:30:07.006Z,101509.55
2022-08-31T20:33:55.028Z,101507.30
2022-08-31T20:37:43.631Z,101508.27
2022-08-31T20:41:32.276Z,101514.35
2022-08-31T20:45:21.027Z,101509.89
2022-08-31T20:49:08.307Z,101513.17
2022-08-31T20:52:56.891Z,101517.88
2022-08-31T20:56:44.908Z,101520.13
2022-08-31T21:00:35.194Z,101516.34
2022-08-31T21:04:22.656Z,101522.40
2022-08-31T21:08:10.374Z,101522.15
2022-08-31T21:11:57.933Z,101525.47
2022-08-31T21:15:46.955Z,101529.55
2022-08-31T21:19:34.670Z,101530.46
2022-08-31T21:23:22.529Z,101531.54
2022-08-31T21:27:10.471Z,101532.14
2022-08-31T21:30:58.357Z,101526.56
2022-08-31T21:34:46.319Z,101525.55
2022-08-31T21:38:34.215Z,101529.56
2022-08-31T21:42:22.144Z,101529.41
2022-08-31T21:46:06.399Z,101530.69
2022-08-31T21:49:53.945Z,101530.29
2022-08-31T21:53:41.602Z,101529.48
2022-08-31T21:57:32.240Z,101530.06
2022-08-31T22:01:21.258Z,101532.14
2022-08-31T22:05:09.583Z,101532.96
2022-08-31T22:08:57.562Z,101531.25
2022-08-31T22:12:44.904Z,101532.19
2022-08-31T22:16:32.679Z,101531.52
2022-08-31T22:20:20.171Z,101530.04
2022-08-31T22:23:57.054Z,101535.54
2022-08-31T22:27:45.737Z,101534.02
2022-08-31T22:31:33.837Z,101534.59
2022-08-31T22:35:22.121Z,101532.34
2022-08-31T22:39:09.976Z,101530.19
2022-08-31T22:42:57.881Z,101529.30
2022-08-31T22:46:47.059Z,101532.35
2022-08-31T22:50:14.660Z,101531.38
2022-08-31T22:53:58.214Z,101528.98
2022-08-31T22:57:46.402Z,101527.66
2022-08-31T23:01:35.200Z,101525.72
2022-08-31T23:05:23.079Z,101526.95
2022-08-31T23:09:10.883Z,101526.94
2022-08-31T23:12:58.560Z,101528.85
2022-08-31T23:16:45.987Z,101526.96
2022-08-31T23:20:36.625Z,101529.51
2022-08-31T23:24:24.508Z,101528.38
2022-08-31T23:28:12.561Z,101529.66
2022-08-31T23:31:47.444Z,101529.80
2022-08-31T23:35:34.833Z,101528.58
2022-08-31T23:39:22.675Z,101529.02
2022-08-31T23:43:10.976Z,101530.02
2022-08-31T23:47:01.876Z,101529.67
2022-08-31T23:50:49.720Z,101530.98
2022-08-31T23:54:29.652Z,101535.39
2022-08-31T23:58:15.373Z,101532.99
